Time;durP1;ratioP1;P1;durP2;ratioP2;P2;SDS_P1;SDS_P2;PMS_P1;PMS_P2;Temp;Humidity;BMP_temperature;BMP_pressure;BME280_temperature;BME280_humidity;BME280_pressure;Samples;Min_cycle;Max_cycle;Signal;HPM_P1;HPM_P2
2023/06/17 00:00:45;;;;;;;5.03;4.20;;;;;24.10;100571.00;;;;2084093;28;20275;-57
2023/06/17 00:01:45;;;;;;;7.43;4.47;;;;;24.10;100566.00;;;;2075510;28;20301;-56
2023/06/17 00:02:46;;;;;;;6.30;4.23;;;;;24.10;100569.00;;;;2077374;28;20220;-56
2023/06/17 00:03:46;;;;;;;4.47;4.17;;;;;24.10;100571.00;;;;2076096;28;20674;-55
2023/06/17 00:04:47;;;;;;;4.50;4.10;;;;;24.10;100566.00;;;;2084389;28;20458;-56
2023/06/17 00:05:47;;;;;;;4.80;4.40;;;;;24.10;100554.00;;;;2085829;28;20307;-55
2023/06/17 00:06:47;;;;;;;7.20;4.37;;;;;24.10;100556.00;;;;2070538;28;20256;-56
2023/06/17 00:07:48;;;;;;;4.83;4.43;;;;;24.10;100557.00;;;;2074212;28;20979;-56
2023/06/17 00:08:48;;;;;;;4.50;4.10;;;;;24.10;100557.00;;;;2070472;28;20224;-57
2023/06/17 00:09:49;;;;;;;4.80;4.27;;;;;24.10;100555.00;;;;2068305;28;20218;-56
2023/06/17 00:10:49;;;;;;;4.50;4.10;;;;;24.10;100555.00;;;;2066039;28;20218;-56
2023/06/17 00:11:51;;;;;;;4.80;4.40;;;;;24.10;100550.00;;;;2080966;28;20216;-56
2023/06/17 00:12:51;;;;;;;5.50;4.53;;;;;24.10;100553.00;;;;2086041;28;20314;-55
2023/06/17 00:13:52;;;;;;;3.90;3.40;;;;;24.10;100547.00;;;;2074885;28;20490;-56
2023/06/17 00:14:53;;;;;;;4.50;4.10;;;;;24.10;100553.00;;;;2085216;28;20225;-57
2023/06/17 00:15:56;;;;;;;4.72;4.32;;;;;24.10;100546.00;;;;2082603;28;20229;-55
2023/06/17 00:16:59;;;;;;;5.03;4.40;;;;;24.00;100549.00;;;;2084128;28;21030;-57
2023/06/17 00:18:00;;;;;;;5.53;4.22;;;;;24.10;100542.00;;;;2083070;28;20223;-57
2023/06/17 00:19:00;;;;;;;4.40;4.10;;;;;24.10;100548.00;;;;2069788;28;20227;-57
2023/06/17 00:20:10;;;;;;;7.27;3.73;;;;;24.10;100548.00;;;;2082169;28;20201;-55
2023/06/17 00:21:10;;;;;;;4.87;4.33;;;;;24.10;100549.00;;;;2083459;28;20707;-56
2023/06/17 00:22:10;;;;;;;5.93;4.00;;;;;24.10;100549.00;;;;2085017;28;20451;-57
2023/06/17 00:23:11;;;;;;;4.80;4.30;;;;;24.00;100547.00;;;;2085207;28;20216;-57
2023/06/17 00:24:12;;;;;;;6.43;4.40;;;;;24.10;100546.00;;;;2071168;28;20309;-55
2023/06/17 00:25:12;;;;;;;4.13;3.77;;;;;24.10;100548.00;;;;2077923;28;20297;-56
2023/06/17 00:26:12;;;;;;;4.60;4.20;;;;;24.10;100546.00;;;;2075405;28;20893;-56
2023/06/17 00:27:13;;;;;;;7.20;4.20;;;;;24.10;100557.00;;;;2074067;28;20733;-57
2023/06/17 00:28:13;;;;;;;4.80;4.40;;;;;24.10;100551.00;;;;2082914;28;20719;-57
2023/06/17 00:29:15;;;;;;;4.57;4.17;;;;;24.10;100538.00;;;;2075569;28;20241;-56
2023/06/17 00:30:15;;;;;;;4.30;3.90;;;;;24.10;100537.00;;;;2083702;28;20811;-55
2023/06/17 00:31:16;;;;;;;4.10;3.70;;;;;24.00;100546.00;;;;2083649;28;20227;-56
2023/06/17 00:32:16;;;;;;;4.30;4.00;;;;;24.00;100538.00;;;;2072109;28;20222;-56
2023/06/17 00:33:16;;;;;;;5.97;4.40;;;;;24.00;100541.00;;;;2075378;28;20232;-56
2023/06/17 00:34:17;;;;;;;3.80;3.50;;;;;24.00;100536.00;;;;2075678;28;20338;-57
2023/06/17 00:35:17;;;;;;;4.43;4.03;;;;;24.00;100537.00;;;;2083458;28;20586;-56
2023/06/17 00:36:18;;;;;;;4.60;4.20;;;;;24.00;100537.00;;;;2069822;28;20245;-56
2023/06/17 00:37:18;;;;;;;5.03;4.60;;;;;24.00;100536.00;;;;2074402;28;20241;-56
2023/06/17 00:38:18;;;;;;;4.27;3.87;;;;;24.00;100534.00;;;;2085648;28;20221;-56
2023/06/17 00:39:19;;;;;;;5.87;4.17;;;;;24.00;100534.00;;;;2075940;28;20267;-56
2023/06/17 00:40:19;;;;;;;5.17;4.40;;;;;24.00;100537.00;;;;2075064;28;20420;-57
2023/06/17 00:41:19;;;;;;;4.50;3.83;;;;;24.00;100535.00;;;;2076766;28;20230;-56
2023/06/17 00:42:20;;;;;;;4.80;4.30;;;;;24.00;100535.00;;;;2082712;28;20687;-56
2023/06/17 00:43:20;;;;;;;13.77;4.23;;;;;24.00;100532.00;;;;2085819;28;20565;-57
2023/06/17 00:44:20;;;;;;;4.53;4.13;;;;;24.00;100546.00;;;;2070265;28;20683;-55
2023/06/17 00:45:21;;;;;;;5.00;4.43;;;;;24.00;100542.00;;;;2083693;28;20240;-55
2023/06/17 00:46:35;;;;;;;4.97;4.50;;;;;24.00;100536.00;;;;2085717;28;20248;-56
2023/06/17 00:47:35;;;;;;;4.73;4.33;;;;;24.00;100537.00;;;;2069119;28;20228;-57
2023/06/17 00:48:36;;;;;;;4.60;3.93;;;;;24.00;100536.00;;;;2076323;28;20452;-56
2023/06/17 00:49:36;;;;;;;7.57;4.50;;;;;24.00;100536.00;;;;2059432;28;20252;-56
2023/06/17 00:50:37;;;;;;;5.67;4.00;;;;;24.00;100538.00;;;;2078174;28;20206;-55
2023/06/17 00:51:37;;;;;;;4.17;3.77;;;;;24.00;100543.00;;;;2083672;28;20578;-55
2023/06/17 00:52:39;;;;;;;4.53;4.13;;;;;24.00;100541.00;;;;2077933;28;20217;-56
2023/06/17 00:53:40;;;;;;;3.67;3.37;;;;;24.00;100544.00;;;;2075749;28;20221;-56
2023/06/17 00:54:41;;;;;;;4.67;4.27;;;;;24.00;100532.00;;;;2057547;28;20456;-56
2023/06/17 00:55:42;;;;;;;5.90;4.22;;;;;24.00;100532.00;;;;2065055;28;20252;-55
2023/06/17 00:56:42;;;;;;;4.40;4.00;;;;;24.00;100537.00;;;;2075325;28;20543;-56
2023/06/17 00:57:45;;;;;;;4.17;3.77;;;;;24.00;100537.00;;;;2076380;28;20456;-56
2023/06/17 00:58:46;;;;;;;4.87;4.40;;;;;24.00;100536.00;;;;2063411;28;20222;-56
2023/06/17 00:59:46;;;;;;;4.40;4.00;;;;;24.00;100534.00;;;;2074646;28;20453;-56
2023/06/17 01:00:46;;;;;;;5.30;4.30;;;;;24.00;100531.00;;;;2073964;28;20307;-56
2023/06/17 01:01:47;;;;;;;4.77;4.37;;;;;24.00;100540.00;;;;2084724;28;20662;-56
2023/06/17 01:02:48;;;;;;;5.03;4.53;;;;;24.00;100536.00;;;;2085549;28;20216;-56
2023/06/17 01:03:49;;;;;;;5.00;3.97;;;;;24.00;100539.00;;;;2075528;28;20212;-57
2023/06/17 01:04:51;;;;;;;4.55;4.15;;;;;24.00;100541.00;;;;2084498;28;20239;-56
2023/06/17 01:05:53;;;;;;;4.57;3.92;;;;;24.00;100531.00;;;;2065900;28;20294;-55
2023/06/17 01:07:03;;;;;;;4.27;3.87;;;;;24.00;100538.00;;;;2054084;28;20219;-57
2023/06/17 01:08:28;;;;;;;6.30;5.27;;;;;24.00;100533.00;;;;2056718;28;20478;-56
2023/06/17 01:09:29;;;;;;;4.63;4.22;;;;;24.00;100538.00;;;;2057331;28;20561;-56
2023/06/17 01:10:30;;;;;;;5.73;4.10;;;;;23.70;100538.00;;;;2076262;28;20217;-55
2023/06/17 01:11:30;;;;;;;8.10;4.97;;;;;24.00;100537.00;;;;2070565;28;20981;-56
2023/06/17 01:12:31;;;;;;;4.63;4.03;;;;;24.00;100543.00;;;;2071468;28;20244;-58
2023/06/17 01:13:31;;;;;;;4.90;4.50;;;;;24.00;100533.00;;;;2060320;28;20806;-56
2023/06/17 01:14:32;;;;;;;4.13;3.83;;;;;23.70;100515.00;;;;2044102;28;20911;-56
2023/06/17 01:15:34;;;;;;;4.23;3.80;;;;;24.00;100541.00;;;;2052980;28;20339;-55
2023/06/17 01:16:34;;;;;;;4.95;4.55;;;;;24.00;100520.00;;;;2062997;28;20540;-55
2023/06/17 01:17:35;;;;;;;5.03;4.60;;;;;24.00;100533.00;;;;2060075;28;20277;-57
2023/06/17 01:18:36;;;;;;;4.60;4.20;;;;;24.00;100532.00;;;;2046073;28;20216;-57
2023/06/17 01:19:38;;;;;;;4.77;4.37;;;;;24.00;100526.00;;;;2050639;28;20585;-55
2023/06/17 01:20:39;;;;;;;5.20;4.10;;;;;24.00;100523.00;;;;2069202;28;20206;-55
2023/06/17 01:21:39;;;;;;;4.35;4.05;;;;;23.90;100525.00;;;;2075013;28;20459;-56
2023/06/17 01:22:40;;;;;;;4.63;4.13;;;;;23.90;100522.00;;;;2068028;28;20225;-57
2023/06/17 01:23:41;;;;;;;5.13;4.63;;;;;23.90;100520.00;;;;2074923;28;20764;-57
2023/06/17 01:24:41;;;;;;;5.33;4.83;;;;;24.00;100516.00;;;;2068797;28;20213;-56
2023/06/17 01:25:41;;;;;;;4.50;4.17;;;;;23.90;100525.00;;;;2062394;28;20806;-57
2023/06/17 01:26:42;;;;;;;4.70;4.20;;;;;23.90;100528.00;;;;2063033;28;20223;-56
2023/06/17 01:27:43;;;;;;;4.30;3.90;;;;;24.00;100518.00;;;;2074907;28;20233;-57
2023/06/17 01:28:44;;;;;;;4.70;4.30;;;;;24.00;100527.00;;;;2072690;28;20455;-55
2023/06/17 01:29:48;;;;;;;6.65;4.80;;;;;24.00;100524.00;;;;2078952;28;20296;-56
2023/06/17 01:30:54;;;;;;;6.03;4.37;;;;;23.90;100527.00;;;;2073107;28;20213;-57
2023/06/17 01:31:57;;;;;;;4.90;4.40;;;;;23.90;100523.00;;;;2071987;28;21296;-56
2023/06/17 01:32:58;;;;;;;4.63;4.22;;;;;23.90;100523.00;;;;2075479;28;20472;-56
2023/06/17 01:33:58;;;;;;;4.60;4.20;;;;;23.90;100517.00;;;;2049438;28;20229;-56
2023/06/17 01:35:00;;;;;;;4.33;3.93;;;;;23.90;100524.00;;;;2050246;28;20451;-56
2023/06/17 01:36:16;;;;;;;5.50;5.00;;;;;23.90;100526.00;;;;2062044;28;20215;-57
2023/06/17 01:37:28;;;;;;;4.63;4.23;;;;;23.90;100528.00;;;;2062961;28;20458;-55
2023/06/17 01:38:37;;;;;;;5.00;4.10;;;;;23.90;100523.00;;;;2069624;28;20488;-57
2023/06/17 01:39:39;;;;;;;4.55;4.15;;;;;23.90;100526.00;;;;2057111;28;20297;-55
2023/06/17 01:40:41;;;;;;;4.50;4.10;;;;;23.90;100519.00;;;;2060300;28;20245;-55
2023/06/17 01:41:45;;;;;;;4.60;4.20;;;;;23.90;100522.00;;;;2067011;28;20583;-56
2023/06/17 01:42:47;;;;;;;5.07;4.63;;;;;23.90;100521.00;;;;2062397;28;20210;-55
2023/06/17 01:43:48;;;;;;;5.20;4.70;;;;;23.90;100523.00;;;;2046116;28;20223;-56
2023/06/17 01:44:48;;;;;;;6.90;4.60;;;;;23.90;100524.00;;;;2064483;28;20288;-57
2023/06/17 01:45:49;;;;;;;4.93;4.53;;;;;23.90;100517.00;;;;2068213;28;20477;-57
2023/06/17 01:46:50;;;;;;;5.23;4.80;;;;;23.90;100517.00;;;;2068005;28;20214;-56
2023/06/17 01:47:50;;;;;;;4.47;4.07;;;;;23.90;100517.00;;;;2065980;28;20210;-56
2023/06/17 01:48:54;;;;;;;4.77;4.30;;;;;23.90;100536.00;;;;2050501;28;20978;-56
2023/06/17 01:50:02;;;;;;;4.90;4.47;;;;;23.90;100522.00;;;;2060551;28;20211;-55
2023/06/17 01:51:04;;;;;;;4.50;4.10;;;;;23.90;100520.00;;;;2062348;28;20258;-56
2023/06/17 01:52:04;;;;;;;8.90;4.47;;;;;23.90;100523.00;;;;2074567;28;20220;-57
2023/06/17 01:53:05;;;;;;;5.27;4.77;;;;;23.90;100515.00;;;;2083552;28;20988;-56
2023/06/17 01:54:05;;;;;;;4.80;4.00;;;;;23.90;100525.00;;;;2074258;28;20228;-56
2023/06/17 01:55:06;;;;;;;5.07;4.47;;;;;23.90;100527.00;;;;2082109;28;20202;-56
2023/06/17 01:56:06;;;;;;;3.90;3.60;;;;;23.90;100521.00;;;;2083887;28;20201;-56
2023/06/17 01:57:07;;;;;;;4.90;4.40;;;;;23.90;100523.00;;;;2077231;28;20198;-55
2023/06/17 01:58:07;;;;;;;5.20;4.80;;;;;23.90;100525.00;;;;2077638;28;20204;-57
2023/06/17 01:59:08;;;;;;;5.30;4.80;;;;;23.80;100525.00;;;;2072383;28;20471;-56
2023/06/17 02:00:09;;;;;;;4.40;4.00;;;;;23.80;100519.00;;;;2084836;28;20197;-57
2023/06/17 02:01:09;;;;;;;4.72;4.32;;;;;23.80;100525.00;;;;2081490;28;20202;-56
2023/06/17 02:02:10;;;;;;;4.63;4.23;;;;;23.90;100528.00;;;;2079817;28;20214;-56
2023/06/17 02:03:10;;;;;;;5.23;4.73;;;;;23.90;100523.00;;;;2077324;28;20304;-56
2023/06/17 02:04:11;;;;;;;4.93;4.30;;;;;23.90;100520.00;;;;2067014;28;20724;-56
2023/06/17 02:05:11;;;;;;;5.17;4.67;;;;;23.90;100539.00;;;;2075575;28;20705;-56
2023/06/17 02:06:11;;;;;;;4.73;4.33;;;;;23.90;100523.00;;;;2074874;28;20702;-55
2023/06/17 02:07:12;;;;;;;5.40;4.90;;;;;23.90;100525.00;;;;2084109;28;20307;-55
2023/06/17 02:08:14;;;;;;;5.37;4.67;;;;;23.90;100443.00;;;;2085037;28;20742;-55
2023/06/17 02:09:15;;;;;;;5.18;4.30;;;;;23.90;100518.00;;;;2065247;28;20256;-56
2023/06/17 02:10:15;;;;;;;5.47;4.40;;;;;23.90;100522.00;;;;2076520;28;20233;-55
2023/06/17 02:11:15;;;;;;;4.87;4.37;;;;;23.90;100517.00;;;;2080060;28;20231;-55
2023/06/17 02:12:16;;;;;;;6.23;4.70;;;;;23.90;100510.00;;;;2083594;28;20224;-55
2023/06/17 02:13:16;;;;;;;5.17;4.60;;;;;23.90;100516.00;;;;2070768;28;20377;-56
2023/06/17 02:14:16;;;;;;;6.30;4.40;;;;;23.90;100513.00;;;;2061150;28;20252;-57
2023/06/17 02:15:17;;;;;;;4.30;3.97;;;;;23.80;100513.00;;;;2076925;28;20216;-56
2023/06/17 02:16:17;;;;;;;4.90;4.40;;;;;23.80;100512.00;;;;2077618;28;20217;-56
2023/06/17 02:17:18;;;;;;;5.10;4.60;;;;;23.80;100523.00;;;;2083835;28;20209;-55
2023/06/17 02:18:18;;;;;;;4.57;4.17;;;;;23.80;100516.00;;;;2082451;28;20224;-55
2023/06/17 02:19:21;;;;;;;5.63;4.63;;;;;23.80;100512.00;;;;2073884;28;20448;-56
2023/06/17 02:20:22;;;;;;;4.53;4.13;;;;;23.80;100516.00;;;;2085227;28;20221;-57
2023/06/17 02:21:22;;;;;;;4.82;4.32;;;;;23.80;100519.00;;;;2082636;28;20471;-55
2023/06/17 02:22:23;;;;;;;4.50;4.10;;;;;23.80;100513.00;;;;2084437;28;20248;-56
2023/06/17 02:23:23;;;;;;;5.67;4.40;;;;;23.80;100512.00;;;;2078885;28;20283;-55
2023/06/17 02:24:23;;;;;;;4.93;4.03;;;;;23.80;100520.00;;;;2074436;28;20212;-57
2023/06/17 02:25:24;;;;;;;5.33;4.43;;;;;23.80;100509.00;;;;2084923;28;20240;-56
2023/06/17 02:26:24;;;;;;;4.60;4.20;;;;;23.80;100514.00;;;;2079728;28;20221;-55
2023/06/17 02:27:25;;;;;;;4.67;4.27;;;;;23.80;100509.00;;;;2083467;28;20308;-55
2023/06/17 02:28:25;;;;;;;4.50;4.10;;;;;23.80;100509.00;;;;2084230;28;20221;-55
2023/06/17 02:29:26;;;;;;;4.77;4.20;;;;;23.80;100514.00;;;;2073953;28;20234;-56
2023/06/17 02:30:26;;;;;;;6.00;4.80;;;;;23.80;100518.00;;;;2080465;28;20225;-56
2023/06/17 02:31:27;;;;;;;4.97;4.57;;;;;23.80;100517.00;;;;2084158;28;20980;-55
2023/06/17 02:32:28;;;;;;;4.93;4.53;;;;;23.80;100505.00;;;;2084245;28;20270;-55
2023/06/17 02:33:29;;;;;;;5.10;4.60;;;;;23.80;100507.00;;;;2082772;28;20765;-56
2023/06/17 02:34:33;;;;;;;4.47;4.07;;;;;23.80;100509.00;;;;2074767;28;20221;-56
2023/06/17 02:35:33;;;;;;;6.05;5.10;;;;;23.80;100507.00;;;;2083079;28;20217;-55
2023/06/17 02:36:34;;;;;;;5.10;4.70;;;;;23.80;100508.00;;;;2077194;28;20229;-56
2023/06/17 02:37:34;;;;;;;5.47;5.00;;;;;23.80;100508.00;;;;2084444;28;20217;-55
2023/06/17 02:38:36;;;;;;;5.00;4.50;;;;;23.80;100505.00;;;;2076426;28;20320;-55
2023/06/17 02:39:36;;;;;;;4.83;4.33;;;;;23.80;100504.00;;;;2066764;28;20221;-56
2023/06/17 02:40:37;;;;;;;5.17;4.67;;;;;23.80;100507.00;;;;2083446;28;20474;-56
2023/06/17 02:41:37;;;;;;;5.03;4.53;;;;;23.80;100513.00;;;;2084744;28;20213;-56
2023/06/17 02:42:38;;;;;;;4.77;4.37;;;;;23.80;100508.00;;;;2079223;28;20212;-55
2023/06/17 02:43:38;;;;;;;4.43;4.03;;;;;23.80;100511.00;;;;2072286;28;20252;-56
2023/06/17 02:44:38;;;;;;;5.10;4.60;;;;;23.80;100498.00;;;;2062368;28;20223;-55
2023/06/17 02:45:39;;;;;;;4.13;3.80;;;;;23.70;100513.00;;;;2068315;28;20214;-56
2023/06/17 02:46:39;;;;;;;5.13;4.70;;;;;23.70;100504.00;;;;2078887;28;20221;-56
2023/06/17 02:47:40;;;;;;;4.97;4.40;;;;;23.70;100514.00;;;;2083942;28;20213;-55
2023/06/17 02:48:41;;;;;;;4.83;4.43;;;;;23.80;100511.00;;;;2082555;28;20213;-56
2023/06/17 02:49:41;;;;;;;5.20;4.73;;;;;23.70;100509.00;;;;2072312;28;20566;-56
2023/06/17 02:50:41;;;;;;;5.00;4.60;;;;;23.70;100508.00;;;;2076678;28;20264;-56
2023/06/17 02:51:42;;;;;;;8.43;4.80;;;;;23.70;100504.00;;;;2080937;28;20212;-55
2023/06/17 02:52:47;;;;;;;4.87;4.40;;;;;23.80;100504.00;;;;2083999;28;20296;-55
2023/06/17 02:53:47;;;;;;;4.40;4.00;;;;;23.70;100506.00;;;;2073950;28;20221;-56
2023/06/17 02:54:48;;;;;;;5.00;4.60;;;;;23.70;100508.00;;;;2074633;28;20223;-56
2023/06/17 02:55:49;;;;;;;4.90;4.40;;;;;23.70;100509.00;;;;2061349;28;20702;-56
2023/06/17 02:56:49;;;;;;;4.97;4.47;;;;;23.80;100510.00;;;;2072464;28;20451;-56
2023/06/17 02:57:49;;;;;;;4.80;4.40;;;;;23.70;100506.00;;;;2079835;28;20290;-55
2023/06/17 02:58:50;;;;;;;4.37;3.97;;;;;23.70;100505.00;;;;2071893;28;20236;-56
2023/06/17 02:59:50;;;;;;;6.37;4.57;;;;;23.70;100526.00;;;;2086679;28;20256;-55
2023/06/17 03:00:54;;;;;;;6.90;5.10;;;;;23.70;100506.00;;;;2084568;28;21104;-55
2023/06/17 03:01:54;;;;;;;4.40;4.00;;;;;23.70;100507.00;;;;2081908;28;20221;-56
2023/06/17 03:02:55;;;;;;;5.53;5.03;;;;;23.70;100511.00;;;;2080132;28;20220;-56
2023/06/17 03:03:55;;;;;;;4.73;4.33;;;;;23.70;100504.00;;;;2073255;28;20217;-56
2023/06/17 03:04:56;;;;;;;5.00;4.60;;;;;23.70;100502.00;;;;2075639;28;20633;-56
2023/06/17 03:05:58;;;;;;;4.63;4.22;;;;;23.70;100508.00;;;;2067928;28;20217;-56
2023/06/17 03:06:59;;;;;;;6.28;4.32;;;;;23.70;100509.00;;;;2077507;28;20244;-57
2023/06/17 03:07:59;;;;;;;5.10;4.60;;;;;23.70;100508.00;;;;2084426;28;20220;-56
2023/06/17 03:09:00;;;;;;;5.77;5.20;;;;;23.70;100505.00;;;;2072673;28;20218;-55
2023/06/17 03:10:01;;;;;;;4.32;3.95;;;;;23.70;100500.00;;;;2077465;28;20951;-56
2023/06/17 03:11:02;;;;;;;4.67;4.27;;;;;23.70;100507.00;;;;2072316;28;20209;-55
2023/06/17 03:12:02;;;;;;;4.70;4.30;;;;;23.70;100502.00;;;;2083990;28;20598;-56
2023/06/17 03:13:03;;;;;;;5.33;4.60;;;;;23.70;100505.00;;;;2079183;28;20210;-57
2023/06/17 03:14:03;;;;;;;4.83;4.20;;;;;23.70;100508.00;;;;2075679;28;20578;-55
2023/06/17 03:15:04;;;;;;;4.90;4.40;;;;;23.70;100508.00;;;;2082019;28;20204;-56
2023/06/17 03:16:05;;;;;;;4.63;4.23;;;;;23.40;100510.00;;;;2081516;28;20864;-55
2023/06/17 03:17:06;;;;;;;5.13;4.68;;;;;23.70;100510.00;;;;2069801;28;20225;-55
2023/06/17 03:18:06;;;;;;;6.40;5.10;;;;;23.70;100507.00;;;;2072433;28;20218;-56
2023/06/17 03:19:06;;;;;;;5.10;4.60;;;;;23.70;100511.00;;;;2075600;28;20252;-56
2023/06/17 03:20:08;;;;;;;4.87;4.47;;;;;23.70;100506.00;;;;2086390;28;20201;-56
2023/06/17 03:21:08;;;;;;;4.97;4.47;;;;;23.70;100504.00;;;;2085542;28;20705;-56
2023/06/17 03:22:09;;;;;;;5.20;4.70;;;;;23.70;100505.00;;;;2082851;28;20214;-56
2023/06/17 03:23:09;;;;;;;5.33;4.60;;;;;23.70;100507.00;;;;2076073;28;20213;-56
2023/06/17 03:24:10;;;;;;;5.53;5.03;;;;;23.70;100507.00;;;;2066940;28;20665;-56
2023/06/17 03:25:11;;;;;;;4.70;4.20;;;;;23.70;100498.00;;;;2085707;28;20208;-55
2023/06/17 03:26:11;;;;;;;5.20;4.65;;;;;23.70;100502.00;;;;2077772;28;20202;-56
2023/06/17 03:27:12;;;;;;;9.10;4.80;;;;;23.70;100504.00;;;;2075709;28;20229;-56
2023/06/17 03:28:12;;;;;;;5.50;5.00;;;;;23.70;100506.00;;;;2085611;28;20262;-55
2023/06/17 03:29:12;;;;;;;5.10;4.70;;;;;23.70;100499.00;;;;2074144;28;20233;-56
2023/06/17 03:30:13;;;;;;;4.90;4.43;;;;;23.70;100496.00;;;;2084265;28;20201;-57
2023/06/17 03:31:18;;;;;;;5.30;4.80;;;;;23.70;100493.00;;;;2077849;28;20214;-56
2023/06/17 03:32:18;;;;;;;5.30;4.80;;;;;23.70;100494.00;;;;2081335;28;20244;-56
2023/06/17 03:33:18;;;;;;;4.43;4.03;;;;;23.60;100499.00;;;;2077825;28;20440;-55
2023/06/17 03:34:19;;;;;;;5.77;5.20;;;;;23.70;100502.00;;;;2060269;28;20261;-55
2023/06/17 03:35:19;;;;;;;5.00;4.50;;;;;23.70;100495.00;;;;2083483;28;20288;-56
2023/06/17 03:36:24;;;;;;;4.83;4.33;;;;;23.60;100498.00;;;;2080814;28;20214;-57
2023/06/17 03:37:24;;;;;;;5.20;4.68;;;;;23.70;100492.00;;;;2070259;28;20222;-55
2023/06/17 03:38:25;;;;;;;5.50;5.00;;;;;23.70;100498.00;;;;2075757;28;20217;-56
2023/06/17 03:39:25;;;;;;;4.50;4.20;;;;;23.60;100493.00;;;;2074893;28;20213;-55
2023/06/17 03:40:25;;;;;;;4.77;4.33;;;;;23.60;100489.00;;;;2080647;28;20221;-56
2023/06/17 03:41:26;;;;;;;5.33;4.80;;;;;23.60;100491.00;;;;2079172;28;20218;-56
2023/06/17 03:42:26;;;;;;;6.03;4.80;;;;;23.60;100494.00;;;;2062461;28;20278;-57
2023/06/17 03:43:27;;;;;;;6.30;4.57;;;;;23.60;100490.00;;;;2061434;28;20223;-56
2023/06/17 03:44:27;;;;;;;6.00;4.60;;;;;23.60;100491.00;;;;2066019;28;20304;-60
2023/06/17 03:45:28;;;;;;;6.10;4.10;;;;;23.60;100493.00;;;;2071169;28;20213;-57
2023/06/17 03:46:28;;;;;;;5.00;4.60;;;;;23.60;100494.00;;;;2082410;28;20213;-56
2023/06/17 03:47:28;;;;;;;5.50;4.57;;;;;23.60;100491.00;;;;2077398;28;20217;-56
2023/06/17 03:48:29;;;;;;;4.37;3.97;;;;;23.60;100493.00;;;;2074370;28;20694;-57
2023/06/17 03:49:29;;;;;;;4.90;4.40;;;;;23.60;100491.00;;;;2075368;28;20739;-57
2023/06/17 03:50:30;;;;;;;4.43;4.07;;;;;23.60;100491.00;;;;2077393;28;20245;-55
2023/06/17 03:51:31;;;;;;;5.38;4.85;;;;;23.60;100489.00;;;;2081525;28;20296;-57
2023/06/17 03:52:31;;;;;;;5.30;4.90;;;;;23.60;100488.00;;;;2085518;28;20221;-56
2023/06/17 03:53:31;;;;;;;4.97;4.57;;;;;23.60;100489.00;;;;2084402;28;20262;-56
2023/06/17 03:54:32;;;;;;;5.00;4.50;;;;;23.60;100488.00;;;;2070173;28;20324;-56
2023/06/17 03:55:33;;;;;;;4.67;4.27;;;;;23.60;100490.00;;;;2085094;28;20238;-56
2023/06/17 03:56:33;;;;;;;5.10;4.60;;;;;23.60;100481.00;;;;2085974;28;20213;-56
2023/06/17 03:57:33;;;;;;;4.87;4.47;;;;;23.60;100480.00;;;;2077548;28;20293;-57
2023/06/17 03:58:34;;;;;;;4.80;4.40;;;;;23.60;100477.00;;;;2075605;28;20244;-55
2023/06/17 03:59:35;;;;;;;4.70;4.30;;;;;23.60;100488.00;;;;2074233;28;20278;-55
2023/06/17 04:00:36;;;;;;;5.10;4.60;;;;;23.60;100485.00;;;;2084297;28;20262;-57
2023/06/17 04:01:38;;;;;;;5.13;4.63;;;;;23.60;100484.00;;;;2071627;28;20301;-56
2023/06/17 04:02:38;;;;;;;5.47;4.18;;;;;23.60;100486.00;;;;2074743;28;20444;-55
2023/06/17 04:03:40;;;;;;;5.27;4.77;;;;;23.60;100487.00;;;;2086041;28;20239;-56
2023/06/17 04:04:40;;;;;;;4.78;4.38;;;;;23.60;100473.00;;;;2068204;28;20317;-56
2023/06/17 04:05:42;;;;;;;5.40;4.87;;;;;23.60;100476.00;;;;2077865;28;20225;-56
2023/06/17 04:06:42;;;;;;;5.13;4.72;;;;;23.60;100484.00;;;;2086080;28;20702;-57
2023/06/17 04:07:42;;;;;;;5.03;4.63;;;;;23.60;100480.00;;;;2077399;28;20216;-57
2023/06/17 04:08:43;;;;;;;4.57;4.17;;;;;23.60;100485.00;;;;2083319;28;20232;-56
2023/06/17 04:09:44;;;;;;;4.85;4.45;;;;;23.50;100469.00;;;;2069960;28;20680;-55
2023/06/17 04:10:47;;;;;;;4.90;4.50;;;;;23.60;100483.00;;;;2068889;28;20214;-57
2023/06/17 04:11:47;;;;;;;4.85;4.45;;;;;23.60;100480.00;;;;2084746;28;20208;-56
2023/06/17 04:12:47;;;;;;;5.63;4.93;;;;;23.60;100477.00;;;;2082701;28;20237;-56
2023/06/17 04:13:48;;;;;;;4.93;4.40;;;;;23.60;100487.00;;;;2071294;28;20308;-57
2023/06/17 04:14:48;;;;;;;5.03;4.60;;;;;23.60;100491.00;;;;2081966;28;20342;-57
2023/06/17 04:15:48;;;;;;;4.97;4.57;;;;;23.60;100485.00;;;;2078092;28;20225;-57
2023/06/17 04:16:51;;;;;;;4.67;4.27;;;;;23.60;100478.00;;;;2085412;28;20221;-56
2023/06/17 04:17:52;;;;;;;5.60;5.00;;;;;23.60;100480.00;;;;2086066;28;20217;-56
2023/06/17 04:18:52;;;;;;;4.70;4.30;;;;;23.60;100478.00;;;;2065178;28;21956;-56
2023/06/17 04:19:54;;;;;;;4.53;4.13;;;;;23.60;100479.00;;;;2060810;28;20250;-56
2023/06/17 04:20:56;;;;;;;5.00;4.53;;;;;23.60;100480.00;;;;2070503;28;20225;-56
2023/06/17 04:21:56;;;;;;;5.07;4.60;;;;;23.60;100483.00;;;;2070887;28;20249;-57
2023/06/17 04:22:57;;;;;;;6.00;4.60;;;;;23.60;100486.00;;;;2077291;28;20221;-56
2023/06/17 04:23:57;;;;;;;4.90;4.50;;;;;23.60;100488.00;;;;2073470;28;20209;-57
2023/06/17 04:24:57;;;;;;;4.97;4.57;;;;;23.60;100484.00;;;;2079808;28;20236;-57
2023/06/17 04:25:58;;;;;;;4.97;4.57;;;;;23.60;100489.00;;;;2082607;28;20273;-60
2023/06/17 04:26:58;;;;;;;4.87;4.20;;;;;23.60;100488.00;;;;2085977;28;20255;-57
2023/06/17 04:28:01;;;;;;;5.00;4.60;;;;;23.60;100492.00;;;;2085306;28;20283;-57
2023/06/17 04:29:01;;;;;;;4.60;4.10;;;;;23.60;100491.00;;;;2061451;28;20236;-57
2023/06/17 04:30:08;;;;;;;6.07;5.47;;;;;23.60;100484.00;;;;2066500;28;20210;-55
2023/06/17 04:31:10;;;;;;;5.30;4.90;;;;;23.60;100491.00;;;;2067739;28;20221;-55
2023/06/17 04:32:15;;;;;;;8.18;4.93;;;;;23.60;100495.00;;;;2068220;28;20618;-56
2023/06/17 04:33:15;;;;;;;5.40;4.55;;;;;23.60;100494.00;;;;2077242;28;20220;-56
2023/06/17 04:34:21;;;;;;;5.10;4.60;;;;;23.60;100493.00;;;;2075668;28;20243;-55
2023/06/17 04:35:23;;;;;;;5.50;5.00;;;;;23.60;100505.00;;;;2074955;28;20225;-57
2023/06/17 04:36:23;;;;;;;4.82;4.30;;;;;23.60;100496.00;;;;2069643;28;20225;-57
2023/06/17 04:37:25;;;;;;;5.33;4.50;;;;;23.60;100496.00;;;;2078717;28;20214;-57
2023/06/17 04:38:25;;;;;;;4.88;4.47;;;;;23.60;100496.00;;;;2083081;28;20238;-56
2023/06/17 04:39:28;;;;;;;5.30;4.80;;;;;23.60;100497.00;;;;2059031;28;20845;-57
2023/06/17 04:40:28;;;;;;;5.90;5.40;;;;;23.60;100498.00;;;;2068364;28;20218;-55
2023/06/17 04:41:32;;;;;;;5.00;4.50;;;;;23.60;100494.00;;;;2085998;28;21144;-56
2023/06/17 04:42:33;;;;;;;5.47;4.97;;;;;23.60;100497.00;;;;2078627;28;20270;-56
2023/06/17 04:43:36;;;;;;;4.68;4.18;;;;;23.50;100500.00;;;;2084975;28;20240;-57
2023/06/17 04:44:37;;;;;;;6.03;5.10;;;;;23.60;100494.00;;;;2073118;28;20275;-56
2023/06/17 04:45:39;;;;;;;5.47;4.80;;;;;23.60;100489.00;;;;2076313;28;20209;-56
2023/06/17 04:46:39;;;;;;;5.38;4.82;;;;;23.70;100495.00;;;;2085054;28;20220;-56
2023/06/17 04:47:40;;;;;;;4.00;3.70;;;;;23.70;100491.00;;;;2084687;28;20228;-57
2023/06/17 04:48:40;;;;;;;4.33;3.93;;;;;23.70;100493.00;;;;2085314;28;20217;-57
2023/06/17 04:49:41;;;;;;;5.10;4.60;;;;;23.70;100503.00;;;;2074207;28;20604;-57
2023/06/17 04:50:43;;;;;;;4.10;3.70;;;;;23.80;100500.00;;;;2084993;28;20264;-56
2023/06/17 04:51:43;;;;;;;5.38;4.88;;;;;23.80;100495.00;;;;2079030;28;20595;-55
2023/06/17 04:52:44;;;;;;;5.80;3.93;;;;;23.80;100485.00;;;;2075049;28;20229;-56
2023/06/17 04:53:44;;;;;;;7.10;4.40;;;;;23.80;100494.00;;;;2066046;28;20603;-57
2023/06/17 04:54:48;;;;;;;5.47;4.40;;;;;23.80;100500.00;;;;2075693;28;20468;-57
2023/06/17 04:55:48;;;;;;;5.40;4.73;;;;;23.80;100486.00;;;;2066915;28;20271;-56
2023/06/17 04:56:48;;;;;;;5.60;4.57;;;;;23.80;100495.00;;;;2079002;28;20564;-57
2023/06/17 04:57:49;;;;;;;4.70;4.30;;;;;23.80;100497.00;;;;2075671;28;20807;-57
2023/06/17 04:58:49;;;;;;;4.77;4.37;;;;;23.80;100492.00;;;;2073055;28;20219;-57
2023/06/17 04:59:50;;;;;;;6.00;4.47;;;;;23.80;100491.00;;;;2081649;28;20285;-55
2023/06/17 05:00:50;;;;;;;4.53;4.13;;;;;23.80;100505.00;;;;2077081;28;20245;-56
2023/06/17 05:01:50;;;;;;;5.20;4.00;;;;;23.90;100502.00;;;;2080359;28;20216;-56
2023/06/17 05:02:50;;;;;;;5.10;4.00;;;;;23.90;100506.00;;;;2082668;28;20210;-56